createdAt,value
2022-08-09T00:00:23.205Z,9.25
2022-08-09T00:02:52.991Z,3.90
2022-08-09T00:06:18.423Z,7.10
2022-08-09T00:08:31.550Z,10.73
2022-08-09T00:11:05.858Z,5.80
2022-08-09T00:13:50.774Z,7.70
2022-08-09T00:16:26.389Z,6.13
2022-08-09T00:19:09.489Z,6.70
2022-08-09T00:21:55.692Z,6.72
2022-08-09T00:24:27.463Z,7.32
2022-08-09T00:26:57.628Z,8.30
2022-08-09T00:30:16.093Z,12.90
2022-08-09T00:32:25.416Z,10.18
2022-08-09T00:34:56.219Z,8.52
2022-08-09T00:37:24.779Z,7.47
2022-08-09T00:40:13.401Z,8.45
2022-08-09T00:44:14.738Z,9.00
2022-08-09T00:45:34.593Z,10.30
2022-08-09T00:48:04.308Z,9.25
2022-08-09T00:50:34.008Z,9.45
2022-08-09T00:53:10.611Z,6.82
2022-08-09T00:56:03.566Z,11.25
2022-08-09T00:58:31.794Z,7.05
2022-08-09T01:01:00.537Z,8.88
2022-08-09T01:03:46.291Z,8.05
2022-08-09T01:06:35.382Z,6.05
2022-08-09T01:09:21.618Z,8.52
2022-08-09T01:11:58.328Z,9.25
2022-08-09T01:14:32.254Z,7.32
2022-08-09T01:17:10.831Z,10.30
2022-08-09T01:20:01.899Z,7.63
2022-08-09T01:24:00.756Z,6.82
2022-08-09T01:26:18.385Z,6.07
2022-08-09T01:28:52.806Z,5.55
2022-08-09T01:32:37.748Z,5.55
2022-08-09T01:34:16.412Z,4.93
2022-08-09T01:36:46.240Z,6.75
2022-08-09T01:39:17.533Z,4.03
2022-08-09T01:41:57.240Z,4.03
2022-08-09T01:44:32.529Z,5.72
2022-08-09T01:47:05.110Z,4.05
2022-08-09T01:49:39.165Z,5.78
2022-08-09T01:52:14.631Z,4.30
2022-08-09T01:54:47.233Z,3.58
2022-08-09T01:57:18.659Z,7.65
2022-08-09T01:59:52.936Z,6.82
2022-08-09T02:02:24.156Z,5.65
2022-08-09T02:05:05.550Z,4.25
2022-08-09T02:08:39.539Z,5.85
2022-08-09T02:10:31.239Z,2.47
2022-08-09T02:13:04.233Z,4.95
2022-08-09T02:15:49.253Z,2.78
2022-08-09T02:18:23.001Z,5.88
2022-08-09T02:20:57.244Z,5.75
2022-08-09T02:23:31.939Z,6.53
2022-08-09T02:26:25.272Z,5.82
2022-08-09T02:28:59.549Z,4.85
2022-08-09T02:31:34.239Z,4.50
2022-08-09T02:34:13.856Z,3.22
2022-08-09T02:36:55.511Z,5.90
2022-08-09T02:39:34.040Z,5.00
2022-08-09T02:42:16.701Z,5.90
2022-08-09T02:44:49.255Z,5.45
2022-08-09T02:47:22.156Z,5.45
2022-08-09T02:49:55.450Z,7.32
2022-08-09T02:52:37.527Z,8.50
2022-08-09T02:55:20.183Z,6.53
2022-08-09T02:58:00.191Z,9.43
2022-08-09T03:00:58.069Z,6.35
2022-08-09T03:04:13.084Z,6.53
2022-08-09T03:06:22.742Z,5.28
2022-08-09T03:08:54.200Z,5.72
2022-08-09T03:11:30.122Z,8.73
2022-08-09T03:14:13.911Z,7.85
2022-08-09T03:16:48.080Z,8.38
2022-08-09T03:19:58.092Z,6.85
2022-08-09T03:22:12.253Z,7.38
2022-08-09T03:25:06.628Z,10.48
2022-08-09T03:27:51.809Z,6.10
2022-08-09T03:30:29.146Z,8.15
2022-08-09T03:32:59.662Z,6.80
2022-08-09T03:36:11.659Z,8.05
2022-08-09T03:38:28.803Z,7.32
2022-08-09T03:40:57.933Z,5.22
2022-08-09T03:43:28.857Z,6.80
2022-08-09T03:46:13.546Z,7.68
2022-08-09T03:48:51.252Z,7.97
2022-08-09T03:51:55.979Z,7.05
2022-08-09T03:54:11.829Z,8.85
2022-08-09T03:56:41.779Z,8.88
2022-08-09T03:59:17.264Z,8.30
2022-08-09T04:01:51.377Z,8.43
2022-08-09T04:04:20.371Z,9.18
2022-08-09T04:06:54.238Z,6.85
2022-08-09T04:09:47.847Z,7.70
2022-08-09T04:12:37.151Z,12.10
2022-08-09T04:15:11.608Z,10.95
2022-08-09T04:17:47.422Z,6.60
2022-08-09T04:20:17.079Z,10.35
2022-08-09T04:22:47.652Z,7.53
2022-08-09T04:25:18.689Z,8.77
2022-08-09T04:27:49.299Z,12.70
2022-08-09T04:30:20.781Z,11.48
2022-08-09T04:32:52.158Z,9.75
2022-08-09T04:35:22.470Z,7.75
2022-08-09T04:37:53.539Z,10.15
2022-08-09T04:40:36.051Z,10.98
2022-08-09T04:43:05.865Z,12.90
2022-08-09T04:45:36.144Z,10.73
2022-08-09T04:48:23.933Z,9.27
2022-08-09T04:51:01.989Z,13.23
2022-08-09T04:53:31.742Z,9.13
2022-08-09T04:56:00.490Z,8.93
2022-08-09T04:58:31.728Z,10.57
2022-08-09T05:01:01.617Z,9.00
2022-08-09T05:03:42.988Z,13.32
2022-08-09T05:06:22.088Z,11.55
2022-08-09T05:09:00.191Z,8.38
2022-08-09T05:11:32.271Z,10.35
2022-08-09T05:14:06.037Z,7.65
2022-08-09T05:16:58.033Z,13.35
2022-08-09T05:19:26.165Z,9.07
2022-08-09T05:22:00.075Z,12.57
2022-08-09T05:24:30.230Z,9.82
2022-08-09T05:26:58.697Z,7.55
2022-08-09T05:29:31.286Z,11.70
2022-08-09T05:32:01.142Z,7.90
2022-08-09T05:34:31.703Z,13.63
2022-08-09T05:37:07.226Z,8.10
2022-08-09T05:39:44.522Z,5.70
2022-08-09T05:42:17.509Z,16.02
2022-08-09T05:44:51.477Z,10.85
2022-08-09T05:47:21.647Z,9.40
2022-08-09T05:50:32.394Z,10.43
2022-08-09T05:52:40.226Z,7.35
2022-08-09T05:55:20.357Z,6.60
2022-08-09T05:57:50.938Z,10.80
2022-08-09T06:00:25.151Z,5.13
2022-08-09T06:02:56.901Z,8.65
2022-08-09T06:05:30.645Z,9.43
2022-08-09T06:08:19.123Z,9.40
2022-08-09T06:10:55.081Z,9.13
2022-08-09T06:13:24.187Z,6.88
2022-08-09T06:15:53.179Z,6.90
2022-08-09T06:18:24.946Z,8.63
2022-08-09T06:20:56.956Z,8.50
2022-08-09T06:23:57.902Z,7.47
2022-08-09T06:26:21.121Z,6.00
2022-08-09T06:29:01.041Z,7.35
2022-08-09T06:31:40.458Z,7.40
2022-08-09T06:34:23.533Z,8.10
2022-08-09T06:36:57.466Z,8.30
2022-08-09T06:39:57.861Z,3.90
2022-08-09T06:42:19.657Z,5.25
2022-08-09T06:44:54.053Z,4.07
2022-08-09T06:47:23.760Z,8.75
2022-08-09T06:50:13.922Z,6.10
2022-08-09T06:52:47.117Z,8.20
2022-08-09T06:55:18.055Z,4.28
2022-08-09T06:58:03.118Z,6.25
2022-08-09T07:00:54.464Z,5.35
2022-08-09T07:03:27.590Z,4.40
2022-08-09T07:06:04.249Z,5.97
2022-08-09T07:08:33.694Z,5.55
2022-08-09T07:11:03.572Z,4.55
2022-08-09T07:13:44.986Z,5.45
2022-08-09T07:16:42.973Z,6.57
2022-08-09T07:19:15.099Z,5.80
2022-08-09T07:21:56.046Z,6.78
2022-08-09T07:24:32.467Z,3.75
2022-08-09T07:27:11.025Z,6.53
2022-08-09T07:29:58.342Z,6.88
2022-08-09T07:32:33.174Z,4.40
2022-08-09T07:35:10.346Z,6.53
2022-08-09T07:37:42.734Z,3.50
2022-08-09T07:40:17.261Z,7.63
2022-08-09T07:42:50.958Z,6.95
2022-08-09T07:45:38.398Z,4.88
2022-08-09T07:48:29.449Z,4.53
2022-08-09T07:51:03.096Z,3.92
2022-08-09T07:54:05.263Z,3.95
2022-08-09T07:56:36.982Z,5.05
2022-08-09T07:59:15.827Z,6.57
2022-08-09T08:01:56.242Z,5.65
2022-08-09T08:04:31.680Z,2.90
2022-08-09T08:07:09.467Z,9.52
2022-08-09T08:09:55.181Z,9.63
2022-08-09T08:12:36.921Z,5.05
2022-08-09T08:15:07.466Z,5.85
2022-08-09T08:17:53.570Z,3.90
2022-08-09T08:20:28.574Z,6.60
2022-08-09T08:23:03.410Z,5.05
2022-08-09T08:25:44.114Z,6.82
2022-08-09T08:28:15.509Z,4.88
2022-08-09T08:30:47.488Z,6.22
2022-08-09T08:33:23.039Z,12.23
2022-08-09T08:35:58.165Z,5.75
2022-08-09T08:38:28.362Z,5.85
2022-08-09T08:40:57.880Z,5.22
2022-08-09T08:43:27.693Z,5.68
2022-08-09T08:46:10.279Z,4.43
2022-08-09T08:48:54.002Z,3.47
2022-08-09T08:51:23.180Z,4.18
2022-08-09T08:54:03.068Z,7.10
2022-08-09T08:56:36.128Z,5.43
2022-08-09T08:59:20.157Z,6.10
2022-08-09T09:01:52.678Z,9.23
2022-08-09T09:04:29.728Z,2.97
2022-08-09T09:07:09.379Z,6.53
2022-08-09T09:09:58.226Z,5.70
2022-08-09T09:12:31.398Z,6.38
2022-08-09T09:15:05.168Z,3.70
2022-08-09T09:17:48.947Z,5.47
2022-08-09T09:20:22.394Z,8.30
2022-08-09T09:22:56.622Z,8.90
2022-08-09T09:26:03.921Z,5.75
2022-08-09T09:29:02.468Z,4.85
2022-08-09T09:32:03.913Z,9.55
2022-08-09T09:34:14.596Z,4.38
2022-08-09T09:36:52.758Z,5.07
2022-08-09T09:39:42.855Z,6.47
2022-08-09T09:42:25.427Z,7.50
2022-08-09T09:44:59.087Z,9.38
2022-08-09T09:47:29.084Z,7.60
2022-08-09T09:50:13.781Z,5.03
2022-08-09T09:52:54.681Z,7.78
2022-08-09T09:55:31.366Z,7.80
2022-08-09T09:58:18.058Z,6.25
2022-08-09T10:00:54.707Z,6.68
2022-08-09T10:03:56.066Z,4.07
2022-08-09T10:06:25.241Z,11.48
2022-08-09T10:09:02.607Z,7.50
2022-08-09T10:12:00.916Z,6.07
2022-08-09T10:14:31.051Z,9.73
2022-08-09T10:17:40.407Z,10.10
2022-08-09T10:19:59.807Z,7.53
2022-08-09T10:22:34.144Z,7.07
2022-08-09T10:25:11.158Z,6.07
2022-08-09T10:27:55.880Z,6.35
2022-08-09T10:34:07.934Z,6.30
2022-08-09T10:36:05.370Z,7.45
2022-08-09T10:38:56.415Z,5.25
2022-08-09T10:41:28.976Z,4.78
2022-08-09T10:43:59.907Z,5.53
2022-08-09T10:47:01.034Z,7.28
2022-08-09T10:49:51.051Z,8.05
2022-08-09T10:52:37.299Z,8.63
2022-08-09T10:55:24.993Z,7.80
2022-08-09T10:57:55.959Z,6.78
2022-08-09T11:01:11.431Z,3.90
2022-08-09T11:03:49.690Z,6.07
2022-08-09T11:06:25.369Z,5.85
2022-08-09T11:08:53.914Z,5.78
2022-08-09T11:11:23.961Z,6.65
2022-08-09T11:14:28.169Z,7.43
2022-08-09T11:16:58.391Z,6.43
2022-08-09T11:20:11.382Z,7.13
2022-08-09T11:23:00.131Z,3.53
2022-08-09T11:25:48.789Z,5.18
2022-08-09T11:28:54.350Z,6.90
2022-08-09T11:31:49.153Z,8.05
2022-08-09T11:34:28.406Z,6.65
2022-08-09T11:36:59.942Z,7.55
2022-08-09T11:39:37.775Z,5.72
2022-08-09T11:42:14.661Z,6.47
2022-08-09T11:44:45.924Z,5.13
2022-08-09T11:47:14.669Z,5.93
2022-08-09T11:50:56.385Z,8.18
2022-08-09T11:53:59.450Z,7.80
2022-08-09T11:56:42.673Z,4.50
2022-08-09T11:59:30.402Z,6.38
2022-08-09T12:02:34.697Z,7.57
2022-08-09T12:04:58.687Z,4.45
2022-08-09T12:07:41.702Z,7.25
2022-08-09T12:10:31.743Z,7.82
2022-08-09T12:13:00.344Z,8.95
2022-08-09T12:15:48.417Z,7.05
2022-08-09T12:18:26.172Z,5.43
2022-08-09T12:21:00.538Z,4.55
2022-08-09T12:23:56.286Z,7.38
2022-08-09T12:26:26.049Z,6.07
2022-08-09T12:29:12.471Z,2.58
2022-08-09T12:32:01.585Z,6.45
2022-08-09T12:34:35.075Z,10.32
2022-08-09T12:37:22.340Z,7.65
2022-08-09T12:40:03.392Z,7.55
2022-08-09T12:42:34.734Z,6.38
2022-08-09T12:45:32.071Z,5.78
2022-08-09T12:47:54.165Z,2.72
2022-08-09T12:50:23.423Z,4.55
2022-08-09T12:53:09.615Z,9.07
2022-08-09T12:56:14.046Z,5.63
2022-08-09T12:58:31.731Z,6.55
2022-08-09T13:01:04.422Z,4.85
2022-08-09T13:03:53.579Z,6.57
2022-08-09T13:06:34.652Z,4.90
2022-08-09T13:09:07.306Z,7.75
2022-08-09T13:11:42.292Z,8.05
2022-08-09T13:14:42.309Z,5.45
2022-08-09T13:17:03.438Z,9.93
2022-08-09T13:20:09.040Z,8.77
2022-08-09T13:22:36.266Z,7.93
2022-08-09T13:25:13.961Z,4.68
2022-08-09T13:27:48.415Z,5.85
2022-08-09T13:31:11.632Z,5.68
2022-08-09T13:33:17.089Z,5.45
2022-08-09T13:36:39.107Z,6.47
2022-08-09T13:38:55.407Z,5.90
2022-08-09T13:41:57.940Z,4.80
2022-08-09T13:44:17.849Z,4.28
2022-08-09T13:47:27.066Z,3.75
2022-08-09T13:49:38.194Z,4.78
2022-08-09T13:52:24.683Z,5.78
2022-08-09T13:55:00.651Z,3.72
2022-08-09T13:57:40.136Z,4.68
2022-08-09T14:00:14.004Z,7.07
2022-08-09T14:03:03.125Z,5.32
2022-08-09T14:05:59.973Z,8.57
2022-08-09T14:08:23.607Z,5.05
2022-08-09T14:10:53.509Z,5.75
2022-08-09T14:14:16.011Z,5.68
2022-08-09T14:16:16.800Z,6.43
2022-08-09T14:18:50.061Z,5.70
2022-08-09T14:21:20.971Z,5.20
2022-08-09T14:23:54.760Z,4.68
2022-08-09T14:26:31.615Z,7.25
2022-08-09T14:29:02.674Z,3.90
2022-08-09T14:31:36.229Z,2.97
2022-08-09T14:34:32.366Z,5.65
2022-08-09T14:37:02.607Z,6.00
2022-08-09T14:39:45.394Z,3.15
2022-08-09T14:42:31.383Z,7.15
2022-08-09T14:46:59.085Z,4.20
2022-08-09T14:47:58.267Z,5.57
2022-08-09T14:50:28.901Z,3.60
2022-08-09T14:52:57.633Z,6.13
2022-08-09T14:55:32.192Z,9.05
2022-08-09T14:58:03.076Z,8.38
2022-08-09T15:00:32.309Z,8.18
2022-08-09T15:03:04.023Z,10.02
2022-08-09T15:05:32.883Z,5.25
2022-08-09T15:08:01.967Z,6.05
2022-08-09T15:10:31.705Z,7.70
2022-08-09T15:13:01.575Z,5.30
2022-08-09T15:15:34.496Z,8.40
2022-08-09T15:18:14.027Z,6.03
2022-08-09T15:21:55.589Z,6.85
2022-08-09T15:23:56.203Z,6.35
2022-08-09T15:26:30.948Z,6.55
2022-08-09T15:29:04.566Z,4.70
2022-08-09T15:31:41.246Z,5.95
2022-08-09T15:34:31.681Z,8.85
2022-08-09T15:37:01.203Z,10.25
2022-08-09T15:39:34.448Z,5.50
2022-08-09T15:42:03.414Z,6.20
2022-08-09T15:44:32.751Z,10.18
2022-08-09T15:47:02.214Z,5.13
2022-08-09T15:49:34.885Z,5.78
2022-08-09T15:52:06.378Z,6.38
2022-08-09T15:54:48.960Z,4.95
2022-08-09T15:57:19.155Z,5.63
2022-08-09T16:00:03.632Z,6.22
2022-08-09T16:02:31.882Z,8.30
2022-08-09T16:05:02.440Z,6.10
2022-08-09T16:07:39.547Z,4.97
2022-08-09T16:10:38.463Z,8.35
2022-08-09T16:13:02.943Z,4.97
2022-08-09T16:16:11.374Z,8.52
2022-08-09T16:18:20.037Z,3.50
2022-08-09T16:20:50.340Z,7.95
2022-08-09T16:23:20.019Z,5.80
2022-08-09T16:25:50.051Z,5.18
2022-08-09T16:28:18.617Z,3.60
2022-08-09T16:30:58.693Z,9.05
2022-08-09T16:33:30.813Z,6.30
2022-08-09T16:36:10.740Z,3.47
2022-08-09T16:38:42.799Z,7.63
2022-08-09T16:41:17.222Z,5.55
2022-08-09T16:43:47.045Z,8.82
2022-08-09T16:46:18.392Z,6.07
2022-08-09T16:48:53.106Z,9.18
2022-08-09T16:51:31.793Z,3.30
2022-08-09T16:54:27.975Z,8.23
2022-08-09T16:56:51.649Z,7.60
2022-08-09T16:59:21.359Z,5.15
2022-08-09T17:01:53.013Z,4.97
2022-08-09T17:04:25.923Z,7.20
2022-08-09T17:08:41.548Z,4.63
2022-08-09T17:09:47.915Z,6.22
2022-08-09T17:12:16.936Z,4.88
2022-08-09T17:14:47.688Z,6.60
2022-08-09T17:17:26.189Z,4.18
2022-08-09T17:20:33.243Z,7.18
2022-08-09T17:22:49.934Z,7.18
2022-08-09T17:25:19.058Z,7.93
2022-08-09T17:27:49.591Z,7.03
2022-08-09T17:30:25.709Z,5.05
2022-08-09T17:33:00.580Z,5.82
2022-08-09T17:35:29.792Z,5.53
2022-08-09T17:38:13.070Z,6.80
2022-08-09T17:40:47.268Z,9.95
2022-08-09T17:43:34.775Z,6.88
2022-08-09T17:46:07.326Z,7.43
2022-08-09T17:48:38.764Z,13.35
2022-08-09T17:51:09.659Z,10.40
2022-08-09T17:53:52.987Z,8.55
2022-08-09T17:56:27.692Z,5.03
2022-08-09T17:59:01.157Z,4.97
2022-08-09T18:01:40.945Z,8.65
2022-08-09T18:04:20.858Z,9.88
2022-08-09T18:06:54.271Z,11.68
2022-08-09T18:09:40.375Z,4.25
2022-08-09T18:12:14.898Z,6.57
2022-08-09T18:14:54.398Z,7.88
2022-08-09T18:17:27.400Z,8.90
2022-08-09T18:20:56.592Z,5.47
2022-08-09T18:23:04.935Z,8.10
2022-08-09T18:25:51.156Z,5.80
2022-08-09T18:30:35.986Z,6.50
2022-08-09T18:31:11.070Z,6.75
2022-08-09T18:33:40.122Z,9.73
2022-08-09T18:36:14.412Z,7.35
2022-08-09T18:38:57.509Z,7.78
2022-08-09T18:41:34.917Z,13.93
2022-08-09T18:44:13.064Z,8.65
2022-08-09T18:46:50.970Z,8.57
2022-08-09T18:49:32.093Z,10.93
2022-08-09T18:52:00.914Z,12.98
2022-08-09T18:54:30.321Z,10.82
2022-08-09T18:57:05.374Z,9.48
2022-08-09T18:59:48.402Z,7.47
2022-08-09T19:02:18.642Z,5.75
2022-08-09T19:05:03.860Z,12.90
2022-08-09T19:07:36.609Z,9.27
2022-08-09T19:10:14.460Z,9.85
2022-08-09T19:12:50.844Z,9.13
2022-08-09T19:15:36.152Z,16.80
2022-08-09T19:18:06.024Z,11.65
2022-08-09T19:20:45.793Z,12.95
2022-08-09T19:24:37.016Z,13.13
2022-08-09T19:26:15.033Z,10.20
2022-08-09T19:28:48.997Z,14.30
2022-08-09T19:31:17.719Z,18.17
2022-08-09T19:33:46.245Z,14.98
2022-08-09T19:36:14.453Z,10.10
2022-08-09T19:38:42.992Z,9.98
2022-08-09T19:41:33.153Z,9.15
2022-08-09T19:44:05.441Z,12.95
2022-08-09T19:46:35.936Z,9.60
2022-08-09T19:50:10.485Z,15.18
2022-08-09T19:52:08.634Z,12.88
2022-08-09T19:54:37.083Z,16.13
2022-08-09T19:57:05.593Z,11.60
2022-08-09T19:59:57.416Z,16.67
2022-08-09T20:04:07.139Z,15.35
2022-08-09T20:05:17.039Z,12.80
2022-08-09T20:07:59.137Z,13.50
2022-08-09T20:10:36.708Z,10.98
2022-08-09T20:13:08.206Z,10.07
2022-08-09T20:16:33.141Z,11.38
2022-08-09T20:18:28.172Z,9.10
2022-08-09T20:20:57.874Z,9.32
2022-08-09T20:23:38.879Z,10.32
2022-08-09T20:26:09.926Z,11.20
2022-08-09T20:28:47.946Z,11.75
2022-08-09T20:31:19.580Z,11.15
2022-08-09T20:33:52.434Z,23.33
2022-08-09T20:36:28.253Z,18.63
2022-08-09T20:39:29.111Z,12.15
2022-08-09T20:41:46.614Z,11.55
2022-08-09T20:44:26.956Z,11.40
2022-08-09T20:46:59.178Z,15.30
2022-08-09T20:49:28.588Z,13.15
2022-08-09T20:51:56.959Z,12.35
2022-08-09T20:54:28.877Z,12.23
2022-08-09T20:56:57.360Z,13.98
2022-08-09T20:59:50.134Z,9.35
2022-08-09T21:02:18.424Z,12.13
2022-08-09T21:05:54.935Z,12.25
2022-08-09T21:07:38.593Z,14.27
2022-08-09T21:10:09.630Z,15.77
2022-08-09T21:12:40.130Z,16.67
2022-08-09T21:15:12.559Z,18.13
2022-08-09T21:18:20.757Z,14.35
2022-08-09T21:20:31.588Z,13.25
2022-08-09T21:23:00.790Z,13.93
2022-08-09T21:25:55.962Z,14.05
2022-08-09T21:28:33.353Z,12.85
2022-08-09T21:31:16.500Z,11.05
2022-08-09T21:33:51.467Z,13.05
2022-08-09T21:36:23.595Z,19.73
2022-08-09T21:38:58.066Z,16.33
2022-08-09T21:42:04.739Z,12.18
2022-08-09T21:44:33.228Z,11.70
2022-08-09T21:47:07.828Z,16.95
2022-08-09T21:49:42.926Z,15.90
2022-08-09T21:52:14.847Z,18.58
2022-08-09T21:54:50.655Z,15.98
2022-08-09T21:57:39.049Z,22.20
2022-08-09T22:00:17.513Z,10.48
2022-08-09T22:02:59.158Z,19.58
2022-08-09T22:05:36.052Z,11.82
2022-08-09T22:08:12.952Z,10.70
2022-08-09T22:11:01.139Z,13.13
2022-08-09T22:13:34.794Z,16.27
2022-08-09T22:16:04.692Z,15.90
2022-08-09T22:18:37.113Z,15.18
2022-08-09T22:21:09.792Z,17.40
2022-08-09T22:23:59.367Z,15.23
2022-08-09T22:26:35.193Z,17.45
2022-08-09T22:29:09.461Z,13.98
2022-08-09T22:31:50.287Z,11.68
2022-08-09T22:34:26.505Z,16.15
2022-08-09T22:36:56.985Z,18.63
2022-08-09T22:39:55.362Z,12.55
2022-08-09T22:42:22.447Z,12.55
2022-08-09T22:48:04.561Z,17.10
2022-08-09T22:48:10.455Z,15.48
2022-08-09T22:50:30.747Z,14.48
2022-08-09T22:53:03.850Z,10.07
2022-08-09T22:56:05.800Z,14.00
2022-08-09T22:58:32.715Z,8.73
2022-08-09T23:01:02.326Z,11.98
2022-08-09T23:04:04.453Z,15.98
2022-08-09T23:06:35.385Z,17.17
2022-08-09T23:09:06.801Z,11.65
2022-08-09T23:11:40.174Z,16.27
2022-08-09T23:14:09.818Z,10.20
2022-08-09T23:16:45.350Z,11.77
2022-08-09T23:19:13.575Z,9.40
2022-08-09T23:21:42.011Z,9.25
2022-08-09T23:24:12.512Z,8.75
2022-08-09T23:26:41.078Z,8.90
2022-08-09T23:29:13.639Z,10.93
2022-08-09T23:31:42.225Z,7.72
2022-08-09T23:34:10.504Z,7.20
2022-08-09T23:36:38.912Z,9.85
2022-08-09T23:39:18.550Z,13.20
2022-08-09T23:41:46.775Z,9.13
2022-08-09T23:44:15.114Z,7.40
2022-08-09T23:46:43.487Z,5.70
2022-08-09T23:49:12.375Z,10.48
2022-08-09T23:51:41.036Z,5.75
2022-08-09T23:54:09.385Z,4.57
2022-08-09T23:56:53.465Z,8.98
2022-08-09T23:59:24.090Z,4.88
